PAKNPACD

Guest
Details From PAKN - KING SALMON
To PACD - Cold Bay
Flight Number -
Tags decoded
Created
Modified
Stats Distance 297 nm / 550 km
Max Altitude 0 ft / 0 m
Waypoints 4
Social Downloads 1
Likes 0
Share VATSIM

Download

Looking for another format? Having issues loading an existing format? Contact us
Advertisement - Login to hide

Notes

Requested: PAKN PDN CDB PACD

Route

PAKN PDN CDB PACD

ID Type Via Altitude Latitude Longitude Leg Dist Tot Dist Heading (true) Name
O PAKN APT - 0 ft / 0 m 58.67709˚ -156.64992˚ - 0 nm - KING SALMON
PDN NDB - 0 ft / 0 m 56.95428˚ -158.64756˚ 121 nm 121 nm 213° / 211° PORT HEIDEN NDB
CDB VOR - 0 ft / 0 m 55.26739˚ -162.77425˚ 171 nm 292 nm 235° / 232° COLD BAY VORTAC
O PACD APT - 0 ft / 0 m 55.20381˚ -162.72304˚ 4 nm 297 nm 155° / 155° Cold Bay

Altitude Profile

Advertisement - Login to hide

Weather


0- 5 10 15 20 25 30 35+ Temperature / ° C

Clouds and Precipitation
Forecast for 2017-12-13 00:00 UTC. Updated an hour ago

Ground ~20,000 ft ~40,000 ft Winds

PAKN

Details ICAO PAKN (AKN)
Name KING SALMON
Region USA (Alaska)
Timezone America/Anchorage (UTC-9.0)
Stats Elevation 68 ft / 21 m (AMSL)
Location 58.677088° -156.649920°
Runways 2
Magnetic Variation 13.469° E

METAR

PAKN 122354Z 12007KT 10SM FEW039 BKN100 BKN120 07/03 A2930

Decode

TAF

TAF TAF PAKN 122339Z 1300/1324 12010G14KT P6SM VCSH BKN060 OVC100 FM131500 07005KT 4SM -RA BR SCT007 OVC015 FM132000 18010KT 6SM -RA BKN025 OVC040

Decode

Departure Runways

ID Width Length Bearing (true) Bearing (mag) Surface Threshold Offset Overrun Length
11 150 ft / 46 m 8,480 ft / 2,585 m 131.89° 118.42° Asphalt 0 ft / 0 m 200 ft / 61 m
18 100 ft / 30 m 4,011 ft / 1,223 m 196.29° 182.82° Asphalt 0 ft / 0 m 0 ft / 0 m
29 150 ft / 46 m 8,480 ft / 2,585 m 311.92° 298.45° Asphalt 0 ft / 0 m 1,000 ft / 305 m
36 100 ft / 30 m 4,011 ft / 1,223 m 16.29° 2.82° Asphalt 0 ft / 0 m 0 ft / 0 m

PACD

Details ICAO PACD (CDB)
Name Cold Bay
Region USA (Alaska)
Timezone America/Nome (UTC-9.0)
Stats Elevation 98 ft / 30 m (AMSL)
Location 55.203815° -162.723041°
Runways 2
Magnetic Variation 10.768° E

METAR

PACD 122353Z 02004KT 9SM OVC015 04/03 A2919

Decode

TAF

PACD 122339Z 1300/1324 32005KT P6SM VCSH OVC015 FM131600 32008KT 5SM -RA BR BKN007 OVC015

Decode

Destination Runways

ID Width Length Bearing (true) Bearing (mag) Surface Threshold Offset Overrun Length
08 151 ft / 46 m 4,222 ft / 1,287 m 94.77° 84.00° Asphalt 0 ft / 0 m 0 ft / 0 m
14 151 ft / 46 m 10,407 ft / 3,172 m 158.39° 147.62° Asphalt 0 ft / 0 m 0 ft / 0 m
26 151 ft / 46 m 4,222 ft / 1,287 m 274.79° 264.02° Asphalt 0 ft / 0 m 0 ft / 0 m
32 151 ft / 46 m 10,407 ft / 3,172 m 338.41° 327.64° Asphalt 0 ft / 0 m 0 ft / 0 m

Approach Navaids

Runway Type Ident Frequency Range Bearing (true) Bearing (mag) Slope Elevation
14 Localiser ICDB 110.30 MHz 18 nm / 33 km 158.42° 147.66° - 98 ft / 30 m (AMSL)
14 Glidescope ICDB 110.30 MHz 10 nm / 19 km 158.40° 147.63° 2.80° 69 ft / 21 m (AMSL)

Popular Alternatives